FAB2019 SBCR-SBCT
Flight info
| Callsign | FAB2019 |
|---|---|
| Flight time | 2h 0m |
| Altitude | FL250 |
| Route | SBCR NEGRO GRD LON GEGOB DALIG SBCT |
| Aircraft | E120/M-VD/A |
Departure
| Time | 2026-05-04 18:40 |
|---|---|
| Airport | Corumbá International Airport (SBCR) |
Arrival
| Time | 2026-05-04 20:41 |
|---|---|
| Airport | Curitiba-Afonso Pena International Airport (SBCT) |
| Time | Latitude | Longitude | Altitude | Speed | Heading |
|---|---|---|---|---|---|
| 2026-05-04 18:35 | -19.01250 | -57.66431 | 466 ft | 0 kts | 200° |
| 2026-05-04 18:37 | -19.01251 | -57.66431 | 466 ft | 3 kts | 203° |
| 2026-05-04 18:37 | -19.01214 | -57.66453 | 466 ft | 17 kts | 47° |
| 2026-05-04 18:37 | -19.01115 | -57.66369 | 466 ft | 15 kts | 335° |
| 2026-05-04 18:38 | -19.00967 | -57.66450 | 466 ft | 15 kts | 299° |
| 2026-05-04 18:38 | -19.00964 | -57.66483 | 466 ft | 11 kts | 254° |
| 2026-05-04 18:38 | -19.01019 | -57.66676 | 466 ft | 45 kts | 252° |
| 2026-05-04 18:38 | -19.01134 | -57.67070 | 466 ft | 64 kts | 254° |
| 2026-05-04 18:39 | -19.01260 | -57.67527 | 466 ft | 66 kts | 253° |
| 2026-05-04 18:39 | -19.01347 | -57.67840 | 465 ft | 0 kts | 262° |
| 2026-05-04 18:40 | -19.01296 | -57.67663 | 466 ft | 85 kts | 73° |
| 2026-05-04 18:40 | -19.01040 | -57.66685 | 524 ft | 170 kts | 75° |
| 2026-05-04 18:40 | -19.00687 | -57.65315 | 883 ft | 215 kts | 75° |
| 2026-05-04 18:40 | -19.00281 | -57.63746 | 1277 ft | 226 kts | 75° |
| 2026-05-04 18:41 | -19.00123 | -57.62080 | 1646 ft | 235 kts | 97° |
| 2026-05-04 18:41 | -19.00738 | -57.60475 | 2034 ft | 242 kts | 124° |
| 2026-05-04 18:41 | -19.01864 | -57.59146 | 2429 ft | 246 kts | 136° |
| 2026-05-04 18:41 | -19.03141 | -57.57927 | 2808 ft | 249 kts | 139° |
| 2026-05-04 18:42 | -19.04431 | -57.56699 | 3184 ft | 251 kts | 136° |
| 2026-05-04 18:42 | -19.05655 | -57.55382 | 3560 ft | 253 kts | 133° |
| 2026-05-04 18:42 | -19.06796 | -57.53964 | 3936 ft | 255 kts | 128° |
| 2026-05-04 18:42 | -19.07862 | -57.52460 | 4311 ft | 258 kts | 125° |
| 2026-05-04 18:43 | -19.08868 | -57.50884 | 4686 ft | 261 kts | 122° |
| 2026-05-04 18:43 | -19.09833 | -57.49248 | 5061 ft | 264 kts | 120° |
| 2026-05-04 18:43 | -19.10771 | -57.47566 | 5436 ft | 268 kts | 120° |
| 2026-05-04 18:43 | -19.11691 | -57.45846 | 5810 ft | 271 kts | 119° |
| 2026-05-04 18:44 | -19.12606 | -57.44091 | 6186 ft | 275 kts | 119° |
| 2026-05-04 18:44 | -19.12909 | -57.43501 | 6311 ft | 276 kts | 120° |
| 2026-05-04 18:44 | -19.14428 | -57.40509 | 6937 ft | 279 kts | 120° |
| 2026-05-04 18:44 | -19.15343 | -57.38692 | 7313 ft | 281 kts | 120° |
| 2026-05-04 18:45 | -19.16261 | -57.36863 | 7688 ft | 283 kts | 120° |
| 2026-05-04 18:45 | -19.17180 | -57.35025 | 8063 ft | 284 kts | 120° |
| 2026-05-04 18:45 | -19.18101 | -57.33178 | 8438 ft | 285 kts | 120° |
| 2026-05-04 18:45 | -19.19026 | -57.31320 | 8813 ft | 286 kts | 120° |
| 2026-05-04 18:46 | -19.19953 | -57.29455 | 9188 ft | 288 kts | 120° |
| 2026-05-04 18:46 | -19.20884 | -57.27579 | 9564 ft | 289 kts | 120° |
| 2026-05-04 18:46 | -19.21819 | -57.25695 | 9939 ft | 291 kts | 120° |
| 2026-05-04 18:46 | -19.22758 | -57.23801 | 10314 ft | 292 kts | 120° |
| 2026-05-04 18:47 | -19.23702 | -57.21896 | 10689 ft | 294 kts | 120° |
| 2026-05-04 18:47 | -19.24651 | -57.19982 | 11064 ft | 295 kts | 120° |
| 2026-05-04 18:47 | -19.25603 | -57.18059 | 11439 ft | 296 kts | 120° |
| 2026-05-04 18:47 | -19.26560 | -57.16126 | 11815 ft | 298 kts | 120° |
| 2026-05-04 18:48 | -19.27523 | -57.14179 | 12190 ft | 300 kts | 120° |
| 2026-05-04 18:48 | -19.28488 | -57.12228 | 12565 ft | 301 kts | 120° |
| 2026-05-04 18:48 | -19.29460 | -57.10262 | 12941 ft | 303 kts | 120° |
| 2026-05-04 18:48 | -19.30435 | -57.08288 | 13316 ft | 304 kts | 120° |
| 2026-05-04 18:49 | -19.31420 | -57.06303 | 13691 ft | 306 kts | 120° |
| 2026-05-04 18:49 | -19.32414 | -57.04311 | 14066 ft | 307 kts | 120° |
| 2026-05-04 18:49 | -19.33415 | -57.02310 | 14442 ft | 309 kts | 120° |
| 2026-05-04 18:49 | -19.34424 | -57.00298 | 14817 ft | 311 kts | 120° |
| 2026-05-04 18:50 | -19.35438 | -56.98275 | 15192 ft | 313 kts | 120° |
| 2026-05-04 18:50 | -19.36459 | -56.96242 | 15567 ft | 314 kts | 120° |
| 2026-05-04 18:50 | -19.37484 | -56.94198 | 15943 ft | 316 kts | 120° |
| 2026-05-04 18:50 | -19.38515 | -56.92143 | 16318 ft | 317 kts | 120° |
| 2026-05-04 18:51 | -19.39536 | -56.90108 | 16687 ft | 319 kts | 120° |
| 2026-05-04 18:51 | -19.40589 | -56.88006 | 17068 ft | 320 kts | 120° |
| 2026-05-04 18:51 | -19.41631 | -56.85928 | 17442 ft | 321 kts | 120° |
| 2026-05-04 18:51 | -19.42676 | -56.83841 | 17817 ft | 322 kts | 120° |
| 2026-05-04 18:52 | -19.43438 | -56.82320 | 18089 ft | 323 kts | 120° |
| 2026-05-04 18:52 | -19.44380 | -56.80437 | 18425 ft | 323 kts | 120° |
| 2026-05-04 18:52 | -19.45434 | -56.78332 | 18800 ft | 324 kts | 120° |
| 2026-05-04 18:53 | -19.46490 | -56.76221 | 19175 ft | 325 kts | 120° |
| 2026-05-04 18:53 | -19.47549 | -56.74105 | 19549 ft | 326 kts | 120° |
| 2026-05-04 18:53 | -19.48611 | -56.71981 | 19924 ft | 327 kts | 120° |
| 2026-05-04 18:53 | -19.49675 | -56.69852 | 20299 ft | 328 kts | 120° |
| 2026-05-04 18:54 | -19.50740 | -56.67720 | 20673 ft | 328 kts | 120° |
| 2026-05-04 18:54 | -19.51805 | -56.65588 | 21039 ft | 328 kts | 120° |
| 2026-05-04 18:54 | -19.52875 | -56.63445 | 21321 ft | 331 kts | 120° |
| 2026-05-04 18:54 | -19.53955 | -56.61282 | 21576 ft | 333 kts | 120° |
| 2026-05-04 18:55 | -19.55035 | -56.59117 | 21827 ft | 333 kts | 120° |
| 2026-05-04 18:55 | -19.57200 | -56.54776 | 22327 ft | 334 kts | 120° |
| 2026-05-04 18:55 | -19.58285 | -56.52598 | 22576 ft | 335 kts | 120° |
| 2026-05-04 18:56 | -19.59372 | -56.50417 | 22826 ft | 336 kts | 120° |
| 2026-05-04 18:56 | -19.60460 | -56.48232 | 23076 ft | 336 kts | 120° |
| 2026-05-04 18:56 | -19.61548 | -56.46045 | 23325 ft | 336 kts | 120° |
| 2026-05-04 18:56 | -19.62638 | -56.43855 | 23575 ft | 337 kts | 120° |
| 2026-05-04 18:57 | -19.63729 | -56.41662 | 23824 ft | 337 kts | 120° |
| 2026-05-04 18:57 | -19.64822 | -56.39464 | 24074 ft | 338 kts | 120° |
| 2026-05-04 18:57 | -19.65915 | -56.37264 | 24323 ft | 338 kts | 120° |
| 2026-05-04 18:57 | -19.67011 | -56.35058 | 24573 ft | 339 kts | 120° |
| 2026-05-04 18:58 | -19.68108 | -56.32850 | 24800 ft | 340 kts | 120° |
| 2026-05-04 18:58 | -19.69215 | -56.30622 | 24935 ft | 344 kts | 120° |
| 2026-05-04 18:58 | -19.70333 | -56.28370 | 24990 ft | 348 kts | 120° |
| 2026-05-04 18:58 | -19.71464 | -56.26093 | 24999 ft | 351 kts | 120° |
| 2026-05-04 18:59 | -19.72604 | -56.23795 | 24998 ft | 353 kts | 120° |
| 2026-05-04 18:59 | -19.73746 | -56.21493 | 24997 ft | 354 kts | 120° |
| 2026-05-04 18:59 | -19.74890 | -56.19183 | 24996 ft | 354 kts | 120° |
| 2026-05-04 18:59 | -19.76031 | -56.16878 | 24996 ft | 354 kts | 120° |
| 2026-05-04 19:00 | -19.77173 | -56.14571 | 24996 ft | 353 kts | 120° |
| 2026-05-04 19:00 | -19.78313 | -56.12268 | 24996 ft | 353 kts | 120° |
| 2026-05-04 19:00 | -19.79453 | -56.09962 | 24996 ft | 353 kts | 120° |
| 2026-05-04 19:00 | -19.80591 | -56.07659 | 24996 ft | 353 kts | 120° |
| 2026-05-04 19:01 | -19.81729 | -56.05356 | 24996 ft | 352 kts | 120° |
| 2026-05-04 19:01 | -19.82862 | -56.03063 | 24995 ft | 350 kts | 120° |
| 2026-05-04 19:01 | -19.83984 | -56.00790 | 24995 ft | 347 kts | 120° |
| 2026-05-04 19:01 | -19.85096 | -55.98534 | 24994 ft | 343 kts | 120° |
| 2026-05-04 19:02 | -19.86195 | -55.96305 | 24994 ft | 340 kts | 120° |
| 2026-05-04 19:02 | -19.87284 | -55.94097 | 24994 ft | 337 kts | 120° |
| 2026-05-04 19:02 | -19.88363 | -55.91905 | 24994 ft | 334 kts | 120° |
| 2026-05-04 19:02 | -19.89436 | -55.89728 | 24995 ft | 332 kts | 120° |
| 2026-05-04 19:03 | -19.90505 | -55.87560 | 24995 ft | 331 kts | 120° |
| 2026-05-04 19:03 | -19.91568 | -55.85401 | 24995 ft | 330 kts | 120° |
| 2026-05-04 19:03 | -19.92627 | -55.83249 | 24995 ft | 329 kts | 120° |
| 2026-05-04 19:03 | -19.93684 | -55.81103 | 24995 ft | 328 kts | 120° |
| 2026-05-04 19:04 | -19.94740 | -55.78957 | 24995 ft | 328 kts | 120° |
| 2026-05-04 19:04 | -19.95793 | -55.76816 | 24996 ft | 327 kts | 120° |
| 2026-05-04 19:04 | -19.96844 | -55.74678 | 24996 ft | 327 kts | 120° |
| 2026-05-04 19:04 | -19.97895 | -55.72540 | 24996 ft | 327 kts | 120° |
| 2026-05-04 19:05 | -19.98945 | -55.70403 | 24996 ft | 327 kts | 120° |
| 2026-05-04 19:05 | -19.99995 | -55.68266 | 24996 ft | 327 kts | 120° |
| 2026-05-04 19:05 | -20.01042 | -55.66132 | 24996 ft | 326 kts | 120° |
| 2026-05-04 19:05 | -20.02090 | -55.63997 | 24996 ft | 326 kts | 120° |
| 2026-05-04 19:06 | -20.03137 | -55.61863 | 24996 ft | 326 kts | 120° |
| 2026-05-04 19:06 | -20.04185 | -55.59726 | 24996 ft | 326 kts | 120° |
| 2026-05-04 19:06 | -20.05231 | -55.57591 | 24996 ft | 326 kts | 120° |
| 2026-05-04 19:06 | -20.06278 | -55.55454 | 24996 ft | 326 kts | 120° |
| 2026-05-04 19:07 | -20.07323 | -55.53322 | 24996 ft | 326 kts | 120° |
| 2026-05-04 19:07 | -20.08370 | -55.51183 | 24996 ft | 326 kts | 120° |
| 2026-05-04 19:07 | -20.09415 | -55.49047 | 24996 ft | 326 kts | 120° |
| 2026-05-04 19:07 | -20.10460 | -55.46912 | 24996 ft | 326 kts | 120° |
| 2026-05-04 19:08 | -20.11505 | -55.44775 | 24996 ft | 326 kts | 120° |
| 2026-05-04 19:08 | -20.12549 | -55.42639 | 24996 ft | 326 kts | 120° |
| 2026-05-04 19:08 | -20.13592 | -55.40503 | 24996 ft | 326 kts | 120° |
| 2026-05-04 19:08 | -20.14636 | -55.38366 | 24996 ft | 326 kts | 120° |
| 2026-05-04 19:09 | -20.15680 | -55.36228 | 24996 ft | 326 kts | 120° |
| 2026-05-04 19:09 | -20.16724 | -55.34090 | 24996 ft | 326 kts | 120° |
| 2026-05-04 19:09 | -20.17767 | -55.31953 | 24996 ft | 326 kts | 120° |
| 2026-05-04 19:09 | -20.18809 | -55.29815 | 24996 ft | 326 kts | 120° |
| 2026-05-04 19:10 | -20.19852 | -55.27676 | 24996 ft | 326 kts | 120° |
| 2026-05-04 19:10 | -20.20894 | -55.25538 | 24996 ft | 326 kts | 120° |
| 2026-05-04 19:10 | -20.21936 | -55.23399 | 24996 ft | 326 kts | 120° |
| 2026-05-04 19:10 | -20.22978 | -55.21260 | 24996 ft | 326 kts | 120° |
| 2026-05-04 19:11 | -20.24019 | -55.19120 | 24996 ft | 326 kts | 120° |
| 2026-05-04 19:11 | -20.25060 | -55.16981 | 24996 ft | 326 kts | 119° |
| 2026-05-04 19:11 | -20.26100 | -55.14841 | 24996 ft | 326 kts | 119° |
| 2026-05-04 19:11 | -20.27141 | -55.12701 | 24996 ft | 326 kts | 119° |
| 2026-05-04 19:12 | -20.28182 | -55.10558 | 24996 ft | 326 kts | 119° |
| 2026-05-04 19:12 | -20.30262 | -55.06276 | 24996 ft | 326 kts | 119° |
| 2026-05-04 19:12 | -20.31302 | -55.04134 | 24996 ft | 326 kts | 119° |
| 2026-05-04 19:13 | -20.32341 | -55.01992 | 24996 ft | 326 kts | 119° |
| 2026-05-04 19:13 | -20.33380 | -54.99850 | 24996 ft | 326 kts | 119° |
| 2026-05-04 19:13 | -20.34419 | -54.97708 | 24996 ft | 326 kts | 119° |
| 2026-05-04 19:13 | -20.35457 | -54.95566 | 24996 ft | 326 kts | 119° |
| 2026-05-04 19:14 | -20.36496 | -54.93423 | 24996 ft | 326 kts | 119° |
| 2026-05-04 19:14 | -20.37533 | -54.91280 | 24996 ft | 326 kts | 119° |
| 2026-05-04 19:14 | -20.38572 | -54.89135 | 24996 ft | 326 kts | 119° |
| 2026-05-04 19:14 | -20.39609 | -54.86991 | 24996 ft | 326 kts | 119° |
| 2026-05-04 19:15 | -20.40647 | -54.84846 | 24996 ft | 326 kts | 119° |
| 2026-05-04 19:15 | -20.41683 | -54.82702 | 24996 ft | 326 kts | 119° |
| 2026-05-04 19:15 | -20.42720 | -54.80557 | 24996 ft | 326 kts | 119° |
| 2026-05-04 19:15 | -20.43756 | -54.78413 | 24996 ft | 326 kts | 119° |
| 2026-05-04 19:16 | -20.44792 | -54.76267 | 24996 ft | 326 kts | 119° |
| 2026-05-04 19:16 | -20.45828 | -54.74120 | 24996 ft | 326 kts | 119° |
| 2026-05-04 19:16 | -20.46909 | -54.72003 | 24996 ft | 325 kts | 123° |
| 2026-05-04 19:16 | -20.48154 | -54.70002 | 24996 ft | 324 kts | 128° |
| 2026-05-04 19:17 | -20.49497 | -54.68079 | 24996 ft | 324 kts | 130° |
| 2026-05-04 19:17 | -20.50893 | -54.66205 | 24996 ft | 323 kts | 132° |
| 2026-05-04 19:17 | -20.52320 | -54.64358 | 24996 ft | 323 kts | 133° |
| 2026-05-04 19:17 | -20.53764 | -54.62530 | 24996 ft | 323 kts | 133° |
| 2026-05-04 19:18 | -20.55218 | -54.60712 | 24996 ft | 323 kts | 134° |
| 2026-05-04 19:18 | -20.56679 | -54.58902 | 24996 ft | 323 kts | 134° |
| 2026-05-04 19:18 | -20.58146 | -54.57095 | 24996 ft | 323 kts | 134° |
| 2026-05-04 19:18 | -20.59615 | -54.55291 | 24996 ft | 323 kts | 134° |
| 2026-05-04 19:19 | -20.61085 | -54.53490 | 24996 ft | 323 kts | 134° |
| 2026-05-04 19:19 | -20.62558 | -54.51689 | 24996 ft | 323 kts | 134° |
| 2026-05-04 19:19 | -20.64030 | -54.49891 | 24996 ft | 323 kts | 134° |
| 2026-05-04 19:19 | -20.65504 | -54.48092 | 24996 ft | 323 kts | 134° |
| 2026-05-04 19:20 | -20.66980 | -54.46292 | 24996 ft | 323 kts | 134° |
| 2026-05-04 19:20 | -20.68454 | -54.44494 | 24996 ft | 323 kts | 134° |
| 2026-05-04 19:20 | -20.69929 | -54.42696 | 24996 ft | 323 kts | 134° |
| 2026-05-04 19:20 | -20.71405 | -54.40897 | 24996 ft | 323 kts | 134° |
| 2026-05-04 19:21 | -20.72880 | -54.39099 | 24996 ft | 323 kts | 134° |
| 2026-05-04 19:21 | -20.74354 | -54.37301 | 24996 ft | 323 kts | 134° |
| 2026-05-04 19:21 | -20.75830 | -54.35502 | 24996 ft | 323 kts | 134° |
| 2026-05-04 19:21 | -20.77305 | -54.33703 | 24996 ft | 323 kts | 134° |
| 2026-05-04 19:22 | -20.78779 | -54.31904 | 24996 ft | 323 kts | 134° |
| 2026-05-04 19:22 | -20.80255 | -54.30103 | 24996 ft | 323 kts | 134° |
| 2026-05-04 19:22 | -20.81729 | -54.28303 | 24996 ft | 323 kts | 134° |
| 2026-05-04 19:22 | -20.83204 | -54.26503 | 24996 ft | 323 kts | 134° |
| 2026-05-04 19:23 | -20.84678 | -54.24702 | 24996 ft | 323 kts | 134° |
| 2026-05-04 19:23 | -20.86153 | -54.22901 | 24996 ft | 323 kts | 134° |
| 2026-05-04 19:23 | -20.87626 | -54.21100 | 24996 ft | 323 kts | 134° |
| 2026-05-04 19:23 | -20.89100 | -54.19299 | 24996 ft | 323 kts | 134° |
| 2026-05-04 19:24 | -20.90574 | -54.17496 | 24996 ft | 323 kts | 134° |
| 2026-05-04 19:24 | -20.92047 | -54.15694 | 24996 ft | 323 kts | 134° |
| 2026-05-04 19:24 | -20.93520 | -54.13891 | 24996 ft | 323 kts | 134° |
| 2026-05-04 19:24 | -20.94993 | -54.12088 | 24996 ft | 323 kts | 134° |
| 2026-05-04 19:25 | -20.96466 | -54.10285 | 24996 ft | 323 kts | 134° |
| 2026-05-04 19:25 | -20.97940 | -54.08480 | 24996 ft | 323 kts | 134° |
| 2026-05-04 19:25 | -20.99412 | -54.06675 | 24996 ft | 323 kts | 134° |
| 2026-05-04 19:25 | -21.00884 | -54.04873 | 24996 ft | 323 kts | 134° |
| 2026-05-04 19:26 | -21.02356 | -54.03067 | 24996 ft | 323 kts | 134° |
| 2026-05-04 19:26 | -21.03829 | -54.01261 | 24996 ft | 323 kts | 134° |
| 2026-05-04 19:26 | -21.05301 | -53.99455 | 24996 ft | 323 kts | 134° |
| 2026-05-04 19:26 | -21.06773 | -53.97649 | 24996 ft | 323 kts | 134° |
| 2026-05-04 19:27 | -21.08244 | -53.95843 | 24996 ft | 323 kts | 134° |
| 2026-05-04 19:27 | -21.09716 | -53.94036 | 24996 ft | 323 kts | 134° |
| 2026-05-04 19:27 | -21.11187 | -53.92229 | 24996 ft | 323 kts | 134° |
| 2026-05-04 19:27 | -21.12658 | -53.90421 | 24996 ft | 323 kts | 134° |
| 2026-05-04 19:28 | -21.14129 | -53.88612 | 24996 ft | 323 kts | 134° |
| 2026-05-04 19:28 | -21.15599 | -53.86805 | 24996 ft | 323 kts | 134° |
| 2026-05-04 19:28 | -21.17069 | -53.84996 | 24996 ft | 323 kts | 134° |
| 2026-05-04 19:28 | -21.18539 | -53.83188 | 24996 ft | 323 kts | 134° |
| 2026-05-04 19:29 | -21.20011 | -53.81377 | 24996 ft | 323 kts | 134° |
| 2026-05-04 19:29 | -21.21478 | -53.79571 | 24996 ft | 323 kts | 134° |
| 2026-05-04 19:29 | -21.22950 | -53.77757 | 24996 ft | 323 kts | 134° |
| 2026-05-04 19:29 | -21.24419 | -53.75948 | 24996 ft | 323 kts | 134° |
| 2026-05-04 19:30 | -21.25889 | -53.74136 | 24996 ft | 323 kts | 134° |
| 2026-05-04 19:30 | -21.27358 | -53.72324 | 24996 ft | 323 kts | 134° |
| 2026-05-04 19:30 | -21.28827 | -53.70513 | 24996 ft | 323 kts | 134° |
| 2026-05-04 19:30 | -21.30295 | -53.68701 | 24996 ft | 323 kts | 134° |
| 2026-05-04 19:31 | -21.31764 | -53.66888 | 24996 ft | 323 kts | 134° |
| 2026-05-04 19:31 | -21.33232 | -53.65077 | 24996 ft | 323 kts | 134° |
| 2026-05-04 19:31 | -21.34700 | -53.63264 | 24996 ft | 323 kts | 134° |
| 2026-05-04 19:31 | -21.36168 | -53.61450 | 24996 ft | 323 kts | 134° |
| 2026-05-04 19:32 | -21.37637 | -53.59635 | 24996 ft | 323 kts | 134° |
| 2026-05-04 19:32 | -21.39104 | -53.57822 | 24996 ft | 323 kts | 134° |
| 2026-05-04 19:32 | -21.40572 | -53.56006 | 24996 ft | 323 kts | 134° |
| 2026-05-04 19:32 | -21.42039 | -53.54191 | 24996 ft | 323 kts | 134° |
| 2026-05-04 19:33 | -21.43507 | -53.52376 | 24996 ft | 323 kts | 134° |
| 2026-05-04 19:33 | -21.44972 | -53.50562 | 24996 ft | 323 kts | 134° |
| 2026-05-04 19:33 | -21.46439 | -53.48745 | 24996 ft | 323 kts | 134° |
| 2026-05-04 19:33 | -21.47906 | -53.46928 | 24996 ft | 323 kts | 134° |
| 2026-05-04 19:34 | -21.49372 | -53.45112 | 24996 ft | 323 kts | 134° |
| 2026-05-04 19:34 | -21.50839 | -53.43293 | 24996 ft | 323 kts | 134° |
| 2026-05-04 19:34 | -21.52305 | -53.41476 | 24996 ft | 323 kts | 134° |
| 2026-05-04 19:34 | -21.53771 | -53.39658 | 24996 ft | 323 kts | 134° |
| 2026-05-04 19:35 | -21.55235 | -53.37841 | 24996 ft | 323 kts | 134° |
| 2026-05-04 19:35 | -21.56701 | -53.36021 | 24996 ft | 323 kts | 134° |
| 2026-05-04 19:35 | -21.58167 | -53.34202 | 24996 ft | 323 kts | 134° |
| 2026-05-04 19:35 | -21.59632 | -53.32383 | 24996 ft | 323 kts | 134° |
| 2026-05-04 19:36 | -21.61097 | -53.30562 | 24996 ft | 323 kts | 134° |
| 2026-05-04 19:36 | -21.62561 | -53.28742 | 24996 ft | 323 kts | 134° |
| 2026-05-04 19:36 | -21.64026 | -53.26921 | 24996 ft | 323 kts | 134° |
| 2026-05-04 19:36 | -21.65490 | -53.25100 | 24996 ft | 323 kts | 134° |
| 2026-05-04 19:37 | -21.66954 | -53.23279 | 24996 ft | 323 kts | 134° |
| 2026-05-04 19:37 | -21.68418 | -53.21457 | 24996 ft | 323 kts | 134° |
| 2026-05-04 19:37 | -21.69881 | -53.19635 | 24996 ft | 323 kts | 134° |
| 2026-05-04 19:37 | -21.71345 | -53.17812 | 24996 ft | 323 kts | 134° |
| 2026-05-04 19:38 | -21.72808 | -53.15990 | 24996 ft | 323 kts | 134° |
| 2026-05-04 19:38 | -21.74272 | -53.14166 | 24996 ft | 323 kts | 134° |
| 2026-05-04 19:38 | -21.75734 | -53.12343 | 24996 ft | 323 kts | 134° |
| 2026-05-04 19:38 | -21.77198 | -53.10518 | 24996 ft | 323 kts | 134° |
| 2026-05-04 19:39 | -21.78661 | -53.08693 | 24996 ft | 323 kts | 134° |
| 2026-05-04 19:39 | -21.80122 | -53.06870 | 24996 ft | 323 kts | 134° |
| 2026-05-04 19:39 | -21.81584 | -53.05044 | 24996 ft | 323 kts | 134° |
| 2026-05-04 19:39 | -21.83047 | -53.03218 | 24996 ft | 323 kts | 134° |
| 2026-05-04 19:40 | -21.84508 | -53.01393 | 24996 ft | 323 kts | 134° |
| 2026-05-04 19:40 | -21.85970 | -52.99565 | 24996 ft | 323 kts | 134° |
| 2026-05-04 19:40 | -21.87431 | -52.97739 | 24996 ft | 323 kts | 134° |
| 2026-05-04 19:40 | -21.88893 | -52.95911 | 24996 ft | 323 kts | 134° |
| 2026-05-04 19:41 | -21.90353 | -52.94085 | 24996 ft | 323 kts | 134° |
| 2026-05-04 19:41 | -21.91815 | -52.92256 | 24996 ft | 323 kts | 134° |
| 2026-05-04 19:41 | -21.93275 | -52.90427 | 24996 ft | 323 kts | 134° |
| 2026-05-04 19:41 | -21.94735 | -52.88599 | 24996 ft | 323 kts | 134° |
| 2026-05-04 19:42 | -21.96196 | -52.86769 | 24996 ft | 323 kts | 134° |
| 2026-05-04 19:42 | -21.97656 | -52.84941 | 24996 ft | 323 kts | 134° |
| 2026-05-04 19:42 | -21.99116 | -52.83111 | 24996 ft | 323 kts | 134° |
| 2026-05-04 19:42 | -22.00575 | -52.81281 | 24996 ft | 323 kts | 134° |
| 2026-05-04 19:43 | -22.02034 | -52.79450 | 24996 ft | 323 kts | 134° |
| 2026-05-04 19:43 | -22.03494 | -52.77619 | 24996 ft | 323 kts | 134° |
| 2026-05-04 19:43 | -22.04953 | -52.75788 | 24996 ft | 323 kts | 134° |
| 2026-05-04 19:43 | -22.06412 | -52.73956 | 24996 ft | 323 kts | 134° |
| 2026-05-04 19:44 | -22.07871 | -52.72124 | 24996 ft | 323 kts | 134° |
| 2026-05-04 19:44 | -22.09329 | -52.70291 | 24996 ft | 323 kts | 134° |
| 2026-05-04 19:44 | -22.10787 | -52.68458 | 24996 ft | 323 kts | 134° |
| 2026-05-04 19:44 | -22.12246 | -52.66625 | 24996 ft | 323 kts | 134° |
| 2026-05-04 19:45 | -22.13704 | -52.64790 | 24996 ft | 323 kts | 134° |
| 2026-05-04 19:45 | -22.15162 | -52.62956 | 24996 ft | 323 kts | 134° |
| 2026-05-04 19:45 | -22.16619 | -52.61122 | 24996 ft | 323 kts | 134° |
| 2026-05-04 19:45 | -22.18076 | -52.59287 | 24996 ft | 323 kts | 134° |
| 2026-05-04 19:46 | -22.19533 | -52.57451 | 24996 ft | 323 kts | 134° |
| 2026-05-04 19:46 | -22.20990 | -52.55616 | 24996 ft | 323 kts | 134° |
| 2026-05-04 19:46 | -22.22447 | -52.53780 | 24996 ft | 323 kts | 134° |
| 2026-05-04 19:46 | -22.23904 | -52.51943 | 24996 ft | 323 kts | 133° |
| 2026-05-04 19:47 | -22.25360 | -52.50106 | 24996 ft | 323 kts | 133° |
| 2026-05-04 19:47 | -22.26815 | -52.48270 | 24996 ft | 323 kts | 133° |
| 2026-05-04 19:47 | -22.28272 | -52.46431 | 24996 ft | 323 kts | 133° |
| 2026-05-04 19:47 | -22.29728 | -52.44593 | 24996 ft | 323 kts | 133° |
| 2026-05-04 19:48 | -22.31183 | -52.42755 | 24996 ft | 323 kts | 133° |
| 2026-05-04 19:48 | -22.32639 | -52.40916 | 24996 ft | 323 kts | 133° |
| 2026-05-04 19:48 | -22.34093 | -52.39078 | 24996 ft | 323 kts | 133° |
| 2026-05-04 19:48 | -22.35549 | -52.37237 | 24996 ft | 323 kts | 133° |
| 2026-05-04 19:49 | -22.37003 | -52.35397 | 24996 ft | 323 kts | 133° |
| 2026-05-04 19:49 | -22.38458 | -52.33557 | 24996 ft | 323 kts | 133° |
| 2026-05-04 19:49 | -22.39912 | -52.31716 | 24996 ft | 323 kts | 133° |
| 2026-05-04 19:49 | -22.41366 | -52.29875 | 24996 ft | 323 kts | 133° |
| 2026-05-04 19:50 | -22.42820 | -52.28033 | 24996 ft | 323 kts | 133° |
| 2026-05-04 19:50 | -22.44274 | -52.26191 | 24996 ft | 323 kts | 133° |
| 2026-05-04 19:50 | -22.45726 | -52.24350 | 24996 ft | 323 kts | 133° |
| 2026-05-04 19:50 | -22.47181 | -52.22506 | 24996 ft | 323 kts | 133° |
| 2026-05-04 19:51 | -22.48634 | -52.20662 | 24996 ft | 323 kts | 133° |
| 2026-05-04 19:51 | -22.50054 | -52.18861 | 24996 ft | 323 kts | 133° |
| 2026-05-04 19:51 | -22.51539 | -52.16976 | 24996 ft | 323 kts | 133° |
| 2026-05-04 19:51 | -22.52992 | -52.15130 | 24996 ft | 323 kts | 133° |
| 2026-05-04 19:52 | -22.54445 | -52.13285 | 24996 ft | 323 kts | 133° |
| 2026-05-04 19:52 | -22.55900 | -52.11436 | 24996 ft | 324 kts | 133° |
| 2026-05-04 19:52 | -22.57367 | -52.09573 | 24997 ft | 327 kts | 133° |
| 2026-05-04 19:52 | -22.58845 | -52.07695 | 24997 ft | 329 kts | 133° |
| 2026-05-04 19:53 | -22.60332 | -52.05805 | 24997 ft | 331 kts | 133° |
| 2026-05-04 19:53 | -22.61823 | -52.03908 | 24997 ft | 332 kts | 133° |
| 2026-05-04 19:53 | -22.63319 | -52.02004 | 24996 ft | 333 kts | 133° |
| 2026-05-04 19:53 | -22.64816 | -52.00097 | 24996 ft | 334 kts | 133° |
| 2026-05-04 19:54 | -22.66319 | -51.98182 | 24996 ft | 334 kts | 133° |
| 2026-05-04 19:54 | -22.67822 | -51.96267 | 24996 ft | 335 kts | 133° |
| 2026-05-04 19:54 | -22.69326 | -51.94349 | 24996 ft | 335 kts | 133° |
| 2026-05-04 19:54 | -22.70831 | -51.92429 | 24996 ft | 335 kts | 133° |
| 2026-05-04 19:55 | -22.72337 | -51.90508 | 24996 ft | 335 kts | 133° |
| 2026-05-04 19:55 | -22.73844 | -51.88584 | 24996 ft | 336 kts | 133° |
| 2026-05-04 19:55 | -22.75352 | -51.86658 | 24996 ft | 336 kts | 133° |
| 2026-05-04 19:55 | -22.76859 | -51.84733 | 24996 ft | 336 kts | 133° |
| 2026-05-04 19:56 | -22.78367 | -51.82806 | 24996 ft | 336 kts | 133° |
| 2026-05-04 19:56 | -22.79875 | -51.80878 | 24996 ft | 336 kts | 133° |
| 2026-05-04 19:56 | -22.81383 | -51.78950 | 24996 ft | 336 kts | 133° |
| 2026-05-04 19:56 | -22.82891 | -51.77020 | 24996 ft | 336 kts | 133° |
| 2026-05-04 19:57 | -22.84399 | -51.75091 | 24996 ft | 336 kts | 133° |
| 2026-05-04 19:57 | -22.85907 | -51.73160 | 24996 ft | 336 kts | 133° |
| 2026-05-04 19:57 | -22.87415 | -51.71229 | 24996 ft | 336 kts | 133° |
| 2026-05-04 19:57 | -22.88923 | -51.69297 | 24996 ft | 336 kts | 133° |
| 2026-05-04 19:58 | -22.90430 | -51.67365 | 24996 ft | 336 kts | 133° |
| 2026-05-04 19:58 | -22.91938 | -51.65432 | 24996 ft | 336 kts | 133° |
| 2026-05-04 19:58 | -22.93446 | -51.63498 | 24996 ft | 336 kts | 133° |
| 2026-05-04 19:58 | -22.94952 | -51.61565 | 24996 ft | 336 kts | 133° |
| 2026-05-04 19:59 | -22.96459 | -51.59631 | 24996 ft | 336 kts | 133° |
| 2026-05-04 19:59 | -22.97966 | -51.57696 | 24996 ft | 336 kts | 133° |
| 2026-05-04 19:59 | -22.99473 | -51.55761 | 24996 ft | 336 kts | 133° |
| 2026-05-04 19:59 | -23.00979 | -51.53825 | 24996 ft | 336 kts | 133° |
| 2026-05-04 20:00 | -23.02485 | -51.51889 | 24996 ft | 336 kts | 133° |
| 2026-05-04 20:00 | -23.03990 | -51.49953 | 24996 ft | 336 kts | 133° |
| 2026-05-04 20:00 | -23.05497 | -51.48015 | 24996 ft | 336 kts | 133° |
| 2026-05-04 20:00 | -23.07002 | -51.46077 | 24996 ft | 336 kts | 133° |
| 2026-05-04 20:01 | -23.08507 | -51.44139 | 24996 ft | 336 kts | 133° |
| 2026-05-04 20:01 | -23.10011 | -51.42202 | 24996 ft | 336 kts | 133° |
| 2026-05-04 20:01 | -23.11516 | -51.40263 | 24996 ft | 336 kts | 133° |
| 2026-05-04 20:01 | -23.13021 | -51.38323 | 24996 ft | 336 kts | 133° |
| 2026-05-04 20:02 | -23.14525 | -51.36383 | 24996 ft | 336 kts | 133° |
| 2026-05-04 20:02 | -23.16029 | -51.34443 | 24996 ft | 336 kts | 133° |
| 2026-05-04 20:02 | -23.17534 | -51.32502 | 24996 ft | 336 kts | 133° |
| 2026-05-04 20:02 | -23.19037 | -51.30561 | 24996 ft | 336 kts | 133° |
| 2026-05-04 20:03 | -23.20540 | -51.28620 | 24996 ft | 336 kts | 133° |
| 2026-05-04 20:03 | -23.22044 | -51.26676 | 24996 ft | 336 kts | 133° |
| 2026-05-04 20:03 | -23.23545 | -51.24735 | 24996 ft | 336 kts | 133° |
| 2026-05-04 20:03 | -23.25049 | -51.22791 | 24996 ft | 336 kts | 133° |
| 2026-05-04 20:04 | -23.26551 | -51.20848 | 24996 ft | 336 kts | 133° |
| 2026-05-04 20:04 | -23.28053 | -51.18903 | 24996 ft | 336 kts | 133° |
| 2026-05-04 20:04 | -23.29555 | -51.16958 | 24996 ft | 336 kts | 133° |
| 2026-05-04 20:04 | -23.31056 | -51.15013 | 24996 ft | 336 kts | 133° |
| 2026-05-04 20:05 | -23.32635 | -51.13153 | 24996 ft | 335 kts | 138° |
| 2026-05-04 20:05 | -23.34314 | -51.11407 | 24996 ft | 334 kts | 141° |
| 2026-05-04 20:05 | -23.36046 | -51.09732 | 24996 ft | 334 kts | 142° |
| 2026-05-04 20:05 | -23.37807 | -51.08100 | 24996 ft | 333 kts | 143° |
| 2026-05-04 20:06 | -23.39587 | -51.06492 | 24996 ft | 333 kts | 144° |
| 2026-05-04 20:06 | -23.41375 | -51.04900 | 24996 ft | 333 kts | 144° |
| 2026-05-04 20:06 | -23.43171 | -51.03316 | 24996 ft | 333 kts | 144° |
| 2026-05-04 20:06 | -23.44969 | -51.01739 | 24996 ft | 333 kts | 144° |
| 2026-05-04 20:07 | -23.46770 | -51.00163 | 24996 ft | 333 kts | 144° |
| 2026-05-04 20:07 | -23.48573 | -50.98590 | 24996 ft | 333 kts | 144° |
| 2026-05-04 20:07 | -23.50375 | -50.97018 | 24996 ft | 333 kts | 144° |
| 2026-05-04 20:07 | -23.52180 | -50.95445 | 24996 ft | 333 kts | 144° |
| 2026-05-04 20:08 | -23.53983 | -50.93875 | 24996 ft | 333 kts | 145° |
| 2026-05-04 20:08 | -23.55788 | -50.92302 | 24996 ft | 333 kts | 145° |
| 2026-05-04 20:08 | -23.57592 | -50.90731 | 24996 ft | 333 kts | 145° |
| 2026-05-04 20:08 | -23.59396 | -50.89158 | 24996 ft | 333 kts | 145° |
| 2026-05-04 20:09 | -23.61199 | -50.87587 | 24996 ft | 333 kts | 145° |
| 2026-05-04 20:09 | -23.63003 | -50.86014 | 24996 ft | 333 kts | 144° |
| 2026-05-04 20:09 | -23.64806 | -50.84442 | 24996 ft | 333 kts | 144° |
| 2026-05-04 20:09 | -23.66610 | -50.82867 | 24996 ft | 333 kts | 144° |
| 2026-05-04 20:10 | -23.68413 | -50.81294 | 24996 ft | 333 kts | 144° |
| 2026-05-04 20:10 | -23.70217 | -50.79719 | 24996 ft | 333 kts | 144° |
| 2026-05-04 20:10 | -23.72020 | -50.78144 | 24996 ft | 333 kts | 144° |
| 2026-05-04 20:10 | -23.73822 | -50.76570 | 24996 ft | 333 kts | 144° |
| 2026-05-04 20:11 | -23.75625 | -50.74994 | 24996 ft | 333 kts | 144° |
| 2026-05-04 20:11 | -23.77428 | -50.73418 | 24996 ft | 333 kts | 144° |
| 2026-05-04 20:11 | -23.79231 | -50.71841 | 24996 ft | 333 kts | 144° |
| 2026-05-04 20:11 | -23.81034 | -50.70264 | 24996 ft | 333 kts | 144° |
| 2026-05-04 20:12 | -23.82838 | -50.68685 | 24996 ft | 333 kts | 144° |
| 2026-05-04 20:12 | -23.84641 | -50.67107 | 24996 ft | 333 kts | 144° |
| 2026-05-04 20:12 | -23.86443 | -50.65528 | 24996 ft | 333 kts | 144° |
| 2026-05-04 20:12 | -23.88244 | -50.63950 | 24996 ft | 333 kts | 144° |
| 2026-05-04 20:13 | -23.90046 | -50.62371 | 24996 ft | 333 kts | 144° |
| 2026-05-04 20:13 | -23.91846 | -50.60792 | 24996 ft | 333 kts | 144° |
| 2026-05-04 20:13 | -23.93649 | -50.59210 | 24996 ft | 333 kts | 144° |
| 2026-05-04 20:13 | -23.95450 | -50.57630 | 24996 ft | 333 kts | 144° |
| 2026-05-04 20:14 | -23.97251 | -50.56050 | 24996 ft | 333 kts | 144° |
| 2026-05-04 20:14 | -23.99053 | -50.54467 | 24996 ft | 333 kts | 144° |
| 2026-05-04 20:14 | -24.00854 | -50.52885 | 24996 ft | 333 kts | 144° |
| 2026-05-04 20:14 | -24.02654 | -50.51303 | 24996 ft | 333 kts | 144° |
| 2026-05-04 20:15 | -24.04455 | -50.49719 | 24996 ft | 333 kts | 144° |
| 2026-05-04 20:15 | -24.06256 | -50.48135 | 24996 ft | 333 kts | 144° |
| 2026-05-04 20:15 | -24.08054 | -50.46552 | 24996 ft | 333 kts | 144° |
| 2026-05-04 20:15 | -24.09855 | -50.44967 | 24996 ft | 333 kts | 144° |
| 2026-05-04 20:16 | -24.11654 | -50.43382 | 24996 ft | 333 kts | 144° |
| 2026-05-04 20:16 | -24.13453 | -50.41797 | 24996 ft | 333 kts | 144° |
| 2026-05-04 20:16 | -24.15257 | -50.40225 | 24996 ft | 333 kts | 145° |
| 2026-05-04 20:16 | -24.17076 | -50.38660 | 24996 ft | 333 kts | 145° |
| 2026-05-04 20:17 | -24.18898 | -50.37106 | 24996 ft | 332 kts | 146° |
| 2026-05-04 20:17 | -24.20721 | -50.35556 | 24996 ft | 332 kts | 146° |
| 2026-05-04 20:17 | -24.22545 | -50.34011 | 24996 ft | 332 kts | 146° |
| 2026-05-04 20:17 | -24.24372 | -50.32464 | 24996 ft | 332 kts | 146° |
| 2026-05-04 20:18 | -24.26199 | -50.30919 | 24996 ft | 332 kts | 146° |
| 2026-05-04 20:18 | -24.28025 | -50.29374 | 24996 ft | 332 kts | 146° |
| 2026-05-04 20:18 | -24.29853 | -50.27828 | 24996 ft | 332 kts | 146° |
| 2026-05-04 20:18 | -24.31680 | -50.26282 | 24996 ft | 332 kts | 146° |
| 2026-05-04 20:19 | -24.33506 | -50.24737 | 24996 ft | 332 kts | 146° |
| 2026-05-04 20:19 | -24.35335 | -50.23189 | 24996 ft | 333 kts | 146° |
| 2026-05-04 20:19 | -24.37162 | -50.21643 | 24996 ft | 333 kts | 146° |
| 2026-05-04 20:19 | -24.38987 | -50.20096 | 24996 ft | 333 kts | 146° |
| 2026-05-04 20:20 | -24.40816 | -50.18547 | 24996 ft | 333 kts | 146° |
| 2026-05-04 20:20 | -24.42642 | -50.16999 | 24996 ft | 333 kts | 146° |
| 2026-05-04 20:20 | -24.44468 | -50.15451 | 24996 ft | 333 kts | 146° |
| 2026-05-04 20:20 | -24.46294 | -50.13902 | 24996 ft | 333 kts | 146° |
| 2026-05-04 20:21 | -24.48122 | -50.12351 | 24996 ft | 333 kts | 146° |
| 2026-05-04 20:21 | -24.49948 | -50.10801 | 24996 ft | 333 kts | 146° |
| 2026-05-04 20:21 | -24.53600 | -50.07700 | 24996 ft | 333 kts | 146° |
| 2026-05-04 20:22 | -24.55427 | -50.06148 | 24996 ft | 333 kts | 146° |
| 2026-05-04 20:22 | -24.57253 | -50.04595 | 24996 ft | 333 kts | 146° |
| 2026-05-04 20:22 | -24.59080 | -50.03042 | 24996 ft | 333 kts | 146° |
| 2026-05-04 20:22 | -24.60905 | -50.01489 | 24996 ft | 333 kts | 146° |
| 2026-05-04 20:23 | -24.62729 | -49.99937 | 24996 ft | 333 kts | 146° |
| 2026-05-04 20:23 | -24.64546 | -49.98390 | 24996 ft | 333 kts | 146° |
| 2026-05-04 20:23 | -24.66381 | -49.96827 | 24996 ft | 333 kts | 146° |
| 2026-05-04 20:23 | -24.68207 | -49.95271 | 24986 ft | 333 kts | 146° |
| 2026-05-04 20:24 | -24.70041 | -49.93709 | 24855 ft | 335 kts | 146° |
| 2026-05-04 20:24 | -24.71887 | -49.92136 | 24588 ft | 337 kts | 146° |
| 2026-05-04 20:24 | -24.73690 | -49.90598 | 24241 ft | 331 kts | 146° |
| 2026-05-04 20:24 | -24.75507 | -49.89042 | 23861 ft | 321 kts | 146° |
| 2026-05-04 20:25 | -24.77250 | -49.87550 | 23484 ft | 315 kts | 146° |
| 2026-05-04 20:25 | -24.78963 | -49.86085 | 23108 ft | 310 kts | 146° |
| 2026-05-04 20:25 | -24.80139 | -49.85078 | 22847 ft | 307 kts | 146° |
| 2026-05-04 20:26 | -24.80566 | -49.84713 | 22751 ft | 306 kts | 146° |
| 2026-05-04 20:26 | -24.82234 | -49.83287 | 22376 ft | 303 kts | 146° |
| 2026-05-04 20:26 | -24.83887 | -49.81874 | 22001 ft | 300 kts | 146° |
| 2026-05-04 20:26 | -24.85524 | -49.80475 | 21626 ft | 297 kts | 146° |
| 2026-05-04 20:27 | -24.87151 | -49.79085 | 21250 ft | 295 kts | 146° |
| 2026-05-04 20:27 | -24.88765 | -49.77704 | 20875 ft | 293 kts | 146° |
| 2026-05-04 20:27 | -24.90365 | -49.76335 | 20501 ft | 291 kts | 146° |
| 2026-05-04 20:27 | -24.91958 | -49.74972 | 20126 ft | 289 kts | 146° |
| 2026-05-04 20:28 | -24.93538 | -49.73619 | 19751 ft | 287 kts | 146° |
| 2026-05-04 20:28 | -24.95108 | -49.72273 | 19377 ft | 286 kts | 146° |
| 2026-05-04 20:28 | -24.96671 | -49.70934 | 19001 ft | 284 kts | 146° |
| 2026-05-04 20:28 | -24.98220 | -49.69606 | 18627 ft | 282 kts | 146° |
| 2026-05-04 20:29 | -24.99760 | -49.68285 | 18252 ft | 280 kts | 146° |
| 2026-05-04 20:29 | -25.01291 | -49.66971 | 17878 ft | 279 kts | 146° |
| 2026-05-04 20:29 | -25.02813 | -49.65664 | 17503 ft | 277 kts | 146° |
| 2026-05-04 20:29 | -25.04325 | -49.64366 | 17128 ft | 275 kts | 146° |
| 2026-05-04 20:30 | -25.05829 | -49.63074 | 16754 ft | 274 kts | 146° |
| 2026-05-04 20:30 | -25.07323 | -49.61790 | 16379 ft | 272 kts | 146° |
| 2026-05-04 20:30 | -25.08807 | -49.60514 | 16005 ft | 270 kts | 146° |
| 2026-05-04 20:30 | -25.10283 | -49.59244 | 15630 ft | 269 kts | 146° |
| 2026-05-04 20:31 | -25.11750 | -49.57982 | 15255 ft | 267 kts | 146° |
| 2026-05-04 20:31 | -25.13207 | -49.56727 | 14881 ft | 266 kts | 146° |
| 2026-05-04 20:31 | -25.14656 | -49.55479 | 14506 ft | 264 kts | 146° |
| 2026-05-04 20:31 | -25.16095 | -49.54239 | 14131 ft | 262 kts | 146° |
| 2026-05-04 20:32 | -25.17527 | -49.53005 | 13757 ft | 261 kts | 146° |
| 2026-05-04 20:32 | -25.18949 | -49.51779 | 13382 ft | 259 kts | 146° |
| 2026-05-04 20:32 | -25.20362 | -49.50560 | 13008 ft | 258 kts | 146° |
| 2026-05-04 20:32 | -25.21768 | -49.49348 | 12633 ft | 256 kts | 146° |
| 2026-05-04 20:33 | -25.23165 | -49.48142 | 12258 ft | 255 kts | 146° |
| 2026-05-04 20:33 | -25.24553 | -49.46944 | 11883 ft | 253 kts | 146° |
| 2026-05-04 20:33 | -25.25933 | -49.45753 | 11509 ft | 252 kts | 146° |
| 2026-05-04 20:33 | -25.27304 | -49.44569 | 11135 ft | 250 kts | 146° |
| 2026-05-04 20:34 | -25.28667 | -49.43391 | 10760 ft | 249 kts | 146° |
| 2026-05-04 20:34 | -25.30023 | -49.42218 | 10385 ft | 247 kts | 146° |
| 2026-05-04 20:34 | -25.31369 | -49.41051 | 10010 ft | 246 kts | 145° |
| 2026-05-04 20:34 | -25.32677 | -49.39844 | 9636 ft | 245 kts | 143° |
| 2026-05-04 20:35 | -25.33935 | -49.38595 | 9261 ft | 243 kts | 141° |
| 2026-05-04 20:35 | -25.35152 | -49.37321 | 8886 ft | 241 kts | 140° |
| 2026-05-04 20:35 | -25.36342 | -49.36033 | 8511 ft | 239 kts | 139° |
| 2026-05-04 20:35 | -25.37514 | -49.34739 | 8136 ft | 238 kts | 139° |
| 2026-05-04 20:36 | -25.38597 | -49.33524 | 7960 ft | 209 kts | 138° |
| 2026-05-04 20:36 | -25.39606 | -49.32393 | 7538 ft | 204 kts | 139° |
| 2026-05-04 20:36 | -25.40584 | -49.31310 | 7125 ft | 194 kts | 139° |
| 2026-05-04 20:36 | -25.41506 | -49.30292 | 6799 ft | 170 kts | 140° |
| 2026-05-04 20:37 | -25.42305 | -49.29412 | 6438 ft | 165 kts | 136° |
| 2026-05-04 20:37 | -25.43092 | -49.28582 | 6070 ft | 149 kts | 136° |
| 2026-05-04 20:37 | -25.43837 | -49.27799 | 5690 ft | 146 kts | 136° |
| 2026-05-04 20:37 | -25.44554 | -49.27043 | 5308 ft | 141 kts | 136° |
| 2026-05-04 20:38 | -25.45223 | -49.26292 | 5061 ft | 133 kts | 133° |
| 2026-05-04 20:38 | -25.45859 | -49.25525 | 4838 ft | 138 kts | 133° |
| 2026-05-04 20:38 | -25.46480 | -49.24793 | 4725 ft | 129 kts | 133° |
| 2026-05-04 20:38 | -25.47116 | -49.24063 | 4598 ft | 131 kts | 134° |
| 2026-05-04 20:39 | -25.47741 | -49.23359 | 4350 ft | 127 kts | 134° |
| 2026-05-04 20:39 | -25.48349 | -49.22676 | 4106 ft | 123 kts | 134° |
| 2026-05-04 20:39 | -25.48939 | -49.22010 | 3909 ft | 120 kts | 134° |
| 2026-05-04 20:39 | -25.49519 | -49.21353 | 3756 ft | 119 kts | 134° |
| 2026-05-04 20:40 | -25.50091 | -49.20702 | 3613 ft | 118 kts | 134° |
| 2026-05-04 20:40 | -25.50659 | -49.20055 | 3464 ft | 117 kts | 134° |
| 2026-05-04 20:40 | -25.51224 | -49.19412 | 3312 ft | 116 kts | 134° |
| 2026-05-04 20:40 | -25.51786 | -49.18772 | 3158 ft | 117 kts | 134° |
| 2026-05-04 20:41 | -25.52359 | -49.18108 | 3023 ft | 117 kts | 134° |
| 2026-05-04 20:41 | -25.52808 | -49.17604 | 2993 ft | 34 kts | 137° |
| 2026-05-04 20:41 | -25.53000 | -49.17394 | 2993 ft | 46 kts | 134° |
| 2026-05-04 20:41 | -25.53118 | -49.17296 | 2993 ft | 8 kts | 202° |
| 2026-05-04 20:42 | -25.53136 | -49.17309 | 2993 ft | 1 kts | 225° |
| 2026-05-04 20:42 | -25.53242 | -49.17323 | 2993 ft | 22 kts | 129° |
| 2026-05-04 20:42 | -25.53323 | -49.17288 | 2993 ft | 23 kts | 218° |
| 2026-05-04 20:42 | -25.53383 | -49.17354 | 2993 ft | 26 kts | 222° |
| 2026-05-04 20:43 | -25.53431 | -49.17407 | 2993 ft | 0 kts | 224° |